CheckWX is a tool to help pilots better visualize weather data.  It is not intended as a substitute for an official pre-flight weather briefing.

03:42:33 UTC

KRSN METAR
Ruston Regional Airport
Ruston, Louisiana, USA
Current

28 mins ago

KRSN 180315Z AUTO 17008KT 4SM BR OVC004 17/16 A2996 RMK AO2 T01690162
Observed
Feb-18 @ 03:15 UTC
Wind
  • 170° at 8 KTS
Visibility
4 SM
Flight Rules
LIFR
Conditions
Mist
Cloud Levels
  • Overcast at 400' AGL
Temperature
17°C / 63°F
Dewpoint
16°C / 61°F
Humidity
94%
Altimeter
29.96" Hg
Pressure
1014.52 hPa
Previous

48 mins ago

KRSN 180255Z AUTO 17010KT 3SM BR OVC004 17/16 A2996 RMK AO2 T01670160
Observed
Feb-18 @ 02:55 UTC
Wind
  • 170° at 10 KTS
Visibility
3 SM
Flight Rules
LIFR
Conditions
Mist
Cloud Levels
  • Overcast at 400' AGL
Temperature
17°C / 63°F
Dewpoint
16°C / 61°F
Humidity
94%
Altimeter
29.96" Hg
Pressure
1014.52 hPa
Previous

1 hour ago

KRSN 180235Z AUTO 16008G15KT 2 1/2SM BR OVC004 17/16 A2995 RMK AO2 T01660160
Observed
Feb-18 @ 02:35 UTC
Wind
  • 160° at 8 KTS
  • Gusting to 15 KTS
Visibility
2 1/2 SM
Flight Rules
LIFR
Conditions
Mist
Cloud Levels
  • Overcast at 400' AGL
Temperature
17°C / 63°F
Dewpoint
16°C / 61°F
Humidity
94%
Altimeter
29.95" Hg
Pressure
1014.22 hPa